CheckWX is a tool to help pilots better visualize weather data.  It is not intended as a substitute for an official pre-flight weather briefing.

04:09:27 UTC

EBAW TAF
Antwerp International (Deurne) Airport
Antwerp, Belgium
TAF EBAW 240210Z 2403/2412 17008KT CAVOK PROB30 TEMPO 2408/2412 18015G25KT

Apr-24@
03:00 UTC

Apr-24 @ 03:00 UTC

Apr-24@
12:00 UTC

Apr-24 @ 12:00 UTC

TAF EBAW 240210Z 2403/2412 17008KT CAVOK
Wind
  • 170° at 8 KTS
Conditions
No significant weather
Cloud Levels
  • No significant clouds

Apr-24@
08:00 UTC

Apr-24 @ 08:00 UTC

Apr-24@
12:00 UTC

Apr-24 @ 12:00 UTC

PROB30 TEMPO 2408/2412 18015G25KT

Temporary - 30% Likelihood

Temporary - 30% Likelihood during this time.

Wind
  • 180° at 15 KTS
  • {Gusting to 25 KTS